createdAt,value
2018-11-06T00:01:05.196Z,1.57
2018-11-06T00:03:34.561Z,2.20
2018-11-06T00:06:02.908Z,2.00
2018-11-06T00:08:31.663Z,2.03
2018-11-06T00:10:59.948Z,1.83
2018-11-06T00:13:28.561Z,1.80
2018-11-06T00:15:56.098Z,1.70
2018-11-06T00:18:25.015Z,1.63
2018-11-06T00:20:53.453Z,1.90
2018-11-06T00:23:21.738Z,1.80
2018-11-06T00:25:49.162Z,1.70
2018-11-06T00:28:18.478Z,2.00
2018-11-06T00:30:45.665Z,1.80
2018-11-06T00:33:13.426Z,2.00
2018-11-06T00:35:41.884Z,2.00
2018-11-06T00:38:10.688Z,1.63
2018-11-06T00:40:38.849Z,1.80
2018-11-06T00:43:06.097Z,1.67
2018-11-06T00:45:34.071Z,1.73
2018-11-06T00:48:02.040Z,1.90
2018-11-06T00:50:31.542Z,1.63
2018-11-06T00:53:00.534Z,1.97
2018-11-06T00:55:29.115Z,1.70
2018-11-06T00:57:57.767Z,1.60
2018-11-06T01:00:26.004Z,1.87
2018-11-06T01:02:53.997Z,1.37
2018-11-06T01:05:22.669Z,1.60
2018-11-06T01:07:50.663Z,2.00
2018-11-06T01:10:19.337Z,1.77
2018-11-06T01:12:47.595Z,1.87
2018-11-06T01:15:15.607Z,1.70
2018-11-06T01:17:43.911Z,1.60
2018-11-06T01:20:14.781Z,1.53
2018-11-06T01:22:42.946Z,2.40
2018-11-06T01:25:12.314Z,1.70
2018-11-06T01:27:39.723Z,1.40
2018-11-06T01:30:08.877Z,2.23
2018-11-06T01:32:38.363Z,1.53
2018-11-06T01:35:06.719Z,1.73
2018-11-06T01:37:35.347Z,1.50
2018-11-06T01:40:05.501Z,1.40
2018-11-06T01:42:33.028Z,1.50
2018-11-06T01:45:02.444Z,1.60
2018-11-06T01:47:31.128Z,1.73
2018-11-06T01:50:00.313Z,1.83
2018-11-06T01:52:28.488Z,1.20
2018-11-06T01:54:57.173Z,1.40
2018-11-06T01:57:25.860Z,1.23
2018-11-06T01:59:54.144Z,1.33
2018-11-06T02:02:23.217Z,1.17
2018-11-06T02:04:52.736Z,1.20
2018-11-06T02:07:21.214Z,1.40
2018-11-06T02:09:50.209Z,1.43
2018-11-06T02:12:18.551Z,1.40
2018-11-06T02:14:45.642Z,1.30
2018-11-06T02:17:14.957Z,1.57
2018-11-06T02:19:43.584Z,1.40
2018-11-06T02:22:12.899Z,1.60
2018-11-06T02:24:41.671Z,1.37
2018-11-06T02:27:11.507Z,1.47
2018-11-06T02:29:39.808Z,1.43
2018-11-06T02:32:07.387Z,1.40
2018-11-06T02:34:35.920Z,1.70
2018-11-06T02:37:03.175Z,1.50
2018-11-06T02:39:30.358Z,1.63
2018-11-06T02:41:58.896Z,1.23
2018-11-06T02:44:26.794Z,1.30
2018-11-06T02:46:55.483Z,1.37
2018-11-06T02:49:24.997Z,1.07
2018-11-06T02:51:52.988Z,1.33
2018-11-06T02:54:22.278Z,1.03
2018-11-06T02:56:50.371Z,1.40
2018-11-06T02:59:18.562Z,1.30
2018-11-06T03:01:46.770Z,1.40
2018-11-06T03:04:14.449Z,2.13
2018-11-06T03:06:42.600Z,1.43
2018-11-06T03:09:10.688Z,1.60
2018-11-06T03:11:38.860Z,1.33
2018-11-06T03:14:06.834Z,1.50
2018-11-06T03:16:36.727Z,1.37
2018-11-06T03:19:05.160Z,1.00
2018-11-06T03:21:34.507Z,1.83
2018-11-06T03:24:03.628Z,1.47
2018-11-06T03:26:33.090Z,1.30
2018-11-06T03:29:01.265Z,1.40
2018-11-06T03:31:29.467Z,1.50
2018-11-06T03:33:56.987Z,1.30
2018-11-06T03:36:25.826Z,1.50
2018-11-06T03:38:54.513Z,1.60
2018-11-06T03:41:23.837Z,1.30
2018-11-06T03:43:52.160Z,1.20
2018-11-06T03:46:20.188Z,1.70
2018-11-06T03:48:48.041Z,1.27
2018-11-06T03:51:16.525Z,1.63
2018-11-06T03:53:44.391Z,1.90
2018-11-06T03:56:12.249Z,1.53
2018-11-06T03:58:40.141Z,1.60
2018-11-06T04:01:07.972Z,1.80
2018-11-06T04:03:36.048Z,1.60
2018-11-06T04:06:04.985Z,1.70
2018-11-06T04:08:32.669Z,1.70
2018-11-06T04:11:01.696Z,1.60
2018-11-06T04:13:32.187Z,1.83
2018-11-06T04:16:02.970Z,1.70
2018-11-06T04:18:32.456Z,1.63
2018-11-06T04:21:01.500Z,1.90
2018-11-06T04:23:30.331Z,1.83
2018-11-06T04:25:59.328Z,2.00
2018-11-06T04:28:27.830Z,2.20
2018-11-06T04:30:56.228Z,2.20
2018-11-06T04:33:25.297Z,2.40
2018-11-06T04:35:54.697Z,2.60
2018-11-06T04:38:23.179Z,2.10
2018-11-06T04:40:50.942Z,2.00
2018-11-06T04:43:18.821Z,1.97
2018-11-06T04:45:46.553Z,2.30
2018-11-06T04:48:13.648Z,2.20
2018-11-06T04:50:40.360Z,2.53
2018-11-06T04:53:07.048Z,2.20
2018-11-06T04:55:41.078Z,2.20
2018-11-06T04:58:08.028Z,2.40
2018-11-06T05:00:35.823Z,2.10
2018-11-06T05:03:02.537Z,2.30
2018-11-06T05:05:29.360Z,2.07
2018-11-06T05:07:56.291Z,1.93
2018-11-06T05:10:23.759Z,2.17
2018-11-06T05:12:50.546Z,2.00
2018-11-06T05:15:17.599Z,2.10
2018-11-06T05:17:44.332Z,2.13
2018-11-06T05:20:11.475Z,2.30
2018-11-06T05:22:40.323Z,2.37
2018-11-06T05:25:08.268Z,2.43
2018-11-06T05:27:35.315Z,2.17
2018-11-06T05:30:02.387Z,2.20
2018-11-06T05:32:29.564Z,2.70
2018-11-06T05:34:56.521Z,2.53
2018-11-06T05:37:23.446Z,2.40
2018-11-06T05:39:50.971Z,2.23
2018-11-06T05:42:17.769Z,2.30
2018-11-06T05:44:44.571Z,1.73
2018-11-06T05:47:11.413Z,2.40
2018-11-06T05:49:39.035Z,2.00
2018-11-06T05:52:06.172Z,1.67
2018-11-06T05:54:33.355Z,2.20
2018-11-06T05:57:00.184Z,2.07
2018-11-06T05:59:28.035Z,2.00
2018-11-06T06:01:55.386Z,3.10
2018-11-06T06:04:22.080Z,2.67
2018-11-06T06:06:49.156Z,2.30
2018-11-06T06:09:16.032Z,2.23
2018-11-06T06:11:42.962Z,2.03
2018-11-06T06:14:09.866Z,1.97
2018-11-06T06:16:37.418Z,2.00
2018-11-06T06:19:10.088Z,2.20
2018-11-06T06:21:53.298Z,2.00
2018-11-06T06:24:20.428Z,1.80
2018-11-06T06:26:47.325Z,2.00
2018-11-06T06:29:14.203Z,2.10
2018-11-06T06:31:41.975Z,1.40
2018-11-06T06:34:09.007Z,1.40
2018-11-06T06:36:36.414Z,2.00
2018-11-06T06:39:03.605Z,1.80
2018-11-06T06:41:30.557Z,2.00
2018-11-06T06:43:57.987Z,1.70
2018-11-06T06:46:25.554Z,1.60
2018-11-06T06:48:52.229Z,1.73
2018-11-06T06:51:19.324Z,1.63
2018-11-06T06:53:46.185Z,1.47
2018-11-06T06:56:13.593Z,1.40
2018-11-06T06:58:41.272Z,5.97
2018-11-06T07:01:08.929Z,3.63
2018-11-06T07:03:35.775Z,3.63
2018-11-06T07:06:03.613Z,4.37
2018-11-06T07:08:30.538Z,3.07
2018-11-06T07:10:58.116Z,3.30
2018-11-06T07:13:24.964Z,17.47
2018-11-06T07:15:51.691Z,10.37
2018-11-06T07:18:18.999Z,4.33
2018-11-06T07:20:45.841Z,4.07
2018-11-06T07:23:13.350Z,2.63
2018-11-06T07:25:40.404Z,2.20
2018-11-06T07:28:07.135Z,2.23
2018-11-06T07:30:33.907Z,2.30
2018-11-06T07:33:01.031Z,2.20
2018-11-06T07:35:28.079Z,2.00
2018-11-06T07:37:54.777Z,2.00
2018-11-06T07:40:21.828Z,2.20
2018-11-06T07:42:49.430Z,2.13
2018-11-06T07:45:16.225Z,2.33
2018-11-06T07:47:43.324Z,1.70
2018-11-06T07:50:10.129Z,2.20
2018-11-06T07:52:37.710Z,2.17
2018-11-06T07:55:04.643Z,2.17
2018-11-06T07:57:31.391Z,2.30
2018-11-06T07:59:58.221Z,2.30
2018-11-06T08:02:24.923Z,2.20
2018-11-06T08:04:52.489Z,2.40
2018-11-06T08:07:19.302Z,1.97
2018-11-06T08:09:46.074Z,1.80
2018-11-06T08:12:13.095Z,2.00
2018-11-06T08:14:40.766Z,1.97
2018-11-06T08:17:07.783Z,2.43
2018-11-06T08:19:35.250Z,2.33
2018-11-06T08:22:02.197Z,2.70
2018-11-06T08:24:30.863Z,2.87
2018-11-06T08:26:57.616Z,2.47
2018-11-06T08:29:24.309Z,3.50
2018-11-06T08:31:51.281Z,3.20
2018-11-06T08:34:18.262Z,5.10
2018-11-06T08:36:45.302Z,5.37
2018-11-06T08:39:12.423Z,4.50
2018-11-06T08:41:40.205Z,4.80
2018-11-06T08:44:07.464Z,7.67
2018-11-06T08:46:34.312Z,8.87
2018-11-06T08:49:01.098Z,9.47
2018-11-06T08:51:28.020Z,10.00
2018-11-06T08:53:54.729Z,11.93
2018-11-06T08:56:22.449Z,13.67
2018-11-06T08:58:49.311Z,16.00
2018-11-06T09:01:16.882Z,19.17
2018-11-06T09:03:44.497Z,19.93
2018-11-06T09:06:11.291Z,24.50
2018-11-06T09:08:38.242Z,19.60
2018-11-06T09:11:05.013Z,19.60
2018-11-06T09:13:31.842Z,19.30
2018-11-06T09:15:58.611Z,22.77
2018-11-06T09:18:25.555Z,20.47
2018-11-06T09:20:52.462Z,21.20
2018-11-06T09:23:19.305Z,27.57
2018-11-06T09:25:46.311Z,25.90
2018-11-06T09:28:13.112Z,27.43
2018-11-06T09:30:39.817Z,25.87
2018-11-06T09:33:07.458Z,32.83
2018-11-06T09:35:35.287Z,30.63
2018-11-06T09:38:02.151Z,27.43
2018-11-06T09:42:56.238Z,30.77
2018-11-06T09:45:22.934Z,30.80
2018-11-06T09:47:49.786Z,33.87
2018-11-06T09:50:16.638Z,31.87
2018-11-06T09:52:43.535Z,36.63
2018-11-06T09:55:10.484Z,32.80
2018-11-06T09:57:37.996Z,34.27
2018-11-06T10:00:04.797Z,37.83
2018-11-06T10:02:31.609Z,34.07
2018-11-06T10:04:58.546Z,41.63
2018-11-06T10:07:25.603Z,42.67
2018-11-06T10:09:52.396Z,41.63
2018-11-06T10:12:19.222Z,37.83
2018-11-06T10:14:46.054Z,40.53
2018-11-06T10:17:12.903Z,41.10
2018-11-06T10:19:39.653Z,38.17
2018-11-06T10:22:06.504Z,44.87
2018-11-06T10:24:33.310Z,42.30
2018-11-06T10:27:00.112Z,39.93
2018-11-06T10:29:26.945Z,43.80
2018-11-06T10:31:53.727Z,41.97
2018-11-06T10:34:20.472Z,37.93
2018-11-06T10:36:47.278Z,45.93
2018-11-06T10:39:14.970Z,41.83
2018-11-06T10:41:42.835Z,44.10
2018-11-06T10:44:09.690Z,40.93
2018-11-06T10:46:36.601Z,43.40
2018-11-06T10:49:03.367Z,45.83
2018-11-06T10:51:30.161Z,50.63
2018-11-06T10:53:57.006Z,47.70
2018-11-06T10:56:24.214Z,40.47
2018-11-06T10:58:51.692Z,39.20
2018-11-06T11:01:35.439Z,40.77
2018-11-06T11:04:03.225Z,43.30
2018-11-06T11:06:30.868Z,41.90
2018-11-06T11:08:57.908Z,41.90
2018-11-06T11:11:24.793Z,35.57
2018-11-06T11:13:52.456Z,40.07
2018-11-06T11:16:20.051Z,41.90
2018-11-06T11:18:46.917Z,41.00
2018-11-06T11:21:14.461Z,45.37
2018-11-06T11:23:42.041Z,43.90
2018-11-06T11:26:08.809Z,41.40
2018-11-06T11:28:35.549Z,41.80
2018-11-06T11:31:02.436Z,42.63
2018-11-06T11:33:29.940Z,39.33
2018-11-06T11:35:56.827Z,45.13
2018-11-06T11:38:23.667Z,44.67
2018-11-06T11:40:50.385Z,47.87
2018-11-06T11:43:17.218Z,41.77
2018-11-06T11:45:44.763Z,44.90
2018-11-06T11:48:11.526Z,42.50
2018-11-06T11:50:38.703Z,50.07
2018-11-06T11:53:05.503Z,48.87
2018-11-06T11:55:33.188Z,49.53
2018-11-06T11:58:00.088Z,51.73
2018-11-06T12:00:26.801Z,47.17
2018-11-06T12:02:54.329Z,50.50
2018-11-06T12:05:21.409Z,49.87
2018-11-06T12:07:48.438Z,52.27
2018-11-06T12:10:15.322Z,55.17
2018-11-06T12:12:42.244Z,48.07
2018-11-06T12:15:09.132Z,44.17
2018-11-06T12:17:35.974Z,48.47
2018-11-06T12:20:03.086Z,43.70
2018-11-06T12:22:29.897Z,45.20
2018-11-06T12:24:56.901Z,42.80
2018-11-06T12:27:24.673Z,44.37
2018-11-06T12:30:07.147Z,44.40
2018-11-06T12:32:34.714Z,45.00
2018-11-06T12:35:02.511Z,42.47
2018-11-06T12:37:29.261Z,39.50
2018-11-06T12:39:56.202Z,42.87
2018-11-06T12:42:23.093Z,44.00
2018-11-06T12:44:50.554Z,51.40
2018-11-06T12:47:17.394Z,44.40
2018-11-06T12:49:44.065Z,39.80
2018-11-06T12:52:10.898Z,40.10
2018-11-06T12:54:37.828Z,40.77
2018-11-06T12:57:04.658Z,38.27
2018-11-06T12:59:31.704Z,43.70
2018-11-06T13:01:59.347Z,36.73
2018-11-06T13:04:27.517Z,35.50
2018-11-06T13:06:55.755Z,36.83
2018-11-06T13:09:24.044Z,35.90
2018-11-06T13:11:53.450Z,36.63
2018-11-06T13:14:21.712Z,34.20
2018-11-06T13:16:49.803Z,36.83
2018-11-06T13:19:17.905Z,39.50
2018-11-06T13:21:46.743Z,31.57
2018-11-06T13:24:14.922Z,36.97
2018-11-06T13:26:43.242Z,35.67
2018-11-06T13:29:10.755Z,33.67
2018-11-06T13:31:37.783Z,32.20
2018-11-06T13:34:05.975Z,34.50
2018-11-06T13:36:34.978Z,29.97
2018-11-06T13:39:03.145Z,34.57
2018-11-06T13:41:31.325Z,35.33
2018-11-06T13:43:59.519Z,34.73
2018-11-06T13:46:27.454Z,34.60
2018-11-06T13:48:55.633Z,32.97
2018-11-06T13:51:25.044Z,33.67
2018-11-06T13:53:52.735Z,34.97
2018-11-06T13:56:20.578Z,39.27
2018-11-06T13:58:48.497Z,38.40
2018-11-06T14:01:17.288Z,35.73
2018-11-06T14:03:44.454Z,36.27
2018-11-06T14:06:12.645Z,34.43
2018-11-06T14:08:56.284Z,36.13
2018-11-06T14:11:25.652Z,40.47
2018-11-06T14:13:54.677Z,38.83
2018-11-06T14:16:23.661Z,31.93
2018-11-06T14:18:52.473Z,42.07
2018-11-06T14:21:21.712Z,40.90
2018-11-06T14:23:49.422Z,36.90
2018-11-06T14:26:17.774Z,35.60
2018-11-06T14:28:44.713Z,35.73
2018-11-06T14:31:11.377Z,33.50
2018-11-06T14:33:38.065Z,31.87
2018-11-06T14:36:04.740Z,31.37
2018-11-06T14:38:32.128Z,34.50
2018-11-06T14:40:58.963Z,30.57
2018-11-06T14:43:25.671Z,33.63
2018-11-06T14:45:53.067Z,30.50
2018-11-06T14:48:20.032Z,33.50
2018-11-06T14:50:47.356Z,30.00
2018-11-06T14:53:14.009Z,34.07
2018-11-06T14:55:41.041Z,34.07
2018-11-06T14:58:07.722Z,31.60
2018-11-06T15:00:34.383Z,38.30
2018-11-06T15:03:01.822Z,31.80
2018-11-06T15:05:28.480Z,35.03
2018-11-06T15:07:55.175Z,35.30
2018-11-06T15:10:21.828Z,35.73
2018-11-06T15:12:48.704Z,31.03
2018-11-06T15:15:16.161Z,35.03
2018-11-06T15:17:43.650Z,35.20
2018-11-06T15:20:10.335Z,37.77
2018-11-06T15:22:37.045Z,33.97
2018-11-06T15:25:03.951Z,36.43
2018-11-06T15:27:30.625Z,37.50
2018-11-06T15:29:57.328Z,38.17
2018-11-06T15:32:38.876Z,39.00
2018-11-06T15:35:05.619Z,35.30
2018-11-06T15:37:33.102Z,38.20
2018-11-06T15:39:59.771Z,36.17
2018-11-06T15:42:26.590Z,33.20
2018-11-06T15:44:53.261Z,37.83
2018-11-06T15:47:20.665Z,31.30
2018-11-06T15:49:47.453Z,38.07
2018-11-06T15:52:29.147Z,35.60
2018-11-06T15:54:55.986Z,31.50
2018-11-06T15:57:22.638Z,33.63
2018-11-06T15:59:49.372Z,28.00
2018-11-06T16:02:16.181Z,32.43
2018-11-06T16:04:42.890Z,28.13
2018-11-06T16:07:09.592Z,31.13
2018-11-06T16:09:36.346Z,27.57
2018-11-06T16:12:03.107Z,29.73
2018-11-06T16:14:29.817Z,27.77
2018-11-06T16:16:56.602Z,26.13
2018-11-06T16:19:25.114Z,26.83
2018-11-06T16:21:52.213Z,30.37
2018-11-06T16:24:19.030Z,27.33
2018-11-06T16:26:45.695Z,27.23
2018-11-06T16:29:12.347Z,26.40
2018-11-06T16:31:39.095Z,23.67
2018-11-06T16:34:05.809Z,27.20
2018-11-06T16:36:32.483Z,27.47
2018-11-06T16:38:59.905Z,27.23
2018-11-06T16:41:26.645Z,21.10
2018-11-06T16:43:53.268Z,23.83
2018-11-06T16:46:20.034Z,24.50
2018-11-06T16:48:46.740Z,28.90
2018-11-06T16:51:13.459Z,23.53
2018-11-06T16:53:40.238Z,22.80
2018-11-06T16:56:06.863Z,26.53
2018-11-06T16:58:33.510Z,24.43
2018-11-06T17:01:00.294Z,23.40
2018-11-06T17:03:27.633Z,23.73
2018-11-06T17:05:54.302Z,23.67
2018-11-06T17:08:21.860Z,26.00
2018-11-06T17:10:49.333Z,25.47
2018-11-06T17:13:16.085Z,25.23
2018-11-06T17:15:42.823Z,24.17
2018-11-06T17:18:09.768Z,22.30
2018-11-06T17:20:36.507Z,26.20
2018-11-06T17:23:03.240Z,23.90
2018-11-06T17:25:29.931Z,25.90
2018-11-06T17:27:56.597Z,28.03
2018-11-06T17:30:23.981Z,28.20
2018-11-06T17:32:50.699Z,28.03
2018-11-06T17:35:18.145Z,27.13
2018-11-06T17:37:45.536Z,25.43
2018-11-06T17:40:12.256Z,27.70
2018-11-06T17:42:39.106Z,28.70
2018-11-06T17:45:05.791Z,27.50
2018-11-06T17:47:32.454Z,26.60
2018-11-06T17:50:14.139Z,26.80
2018-11-06T17:52:40.808Z,25.60
2018-11-06T17:55:08.297Z,29.20
2018-11-06T17:57:35.096Z,28.03
2018-11-06T18:00:01.821Z,29.17
2018-11-06T18:02:28.562Z,22.00
2018-11-06T18:04:55.447Z,24.50
2018-11-06T18:07:22.107Z,24.63
2018-11-06T18:09:48.837Z,25.73
2018-11-06T18:12:15.599Z,23.47
2018-11-06T18:14:43.069Z,24.90
2018-11-06T18:17:10.009Z,24.13
2018-11-06T18:19:37.096Z,23.07
2018-11-06T18:22:03.804Z,25.67
2018-11-06T18:24:30.448Z,23.43
2018-11-06T18:27:12.019Z,25.63
2018-11-06T18:29:39.470Z,26.93
2018-11-06T18:32:06.357Z,26.43
2018-11-06T18:34:33.763Z,22.77
2018-11-06T18:37:00.544Z,27.93
2018-11-06T18:39:27.360Z,30.13
2018-11-06T18:41:54.008Z,25.37
2018-11-06T18:44:20.680Z,31.53
2018-11-06T18:46:48.221Z,23.90
2018-11-06T18:49:15.640Z,27.73
2018-11-06T18:51:42.284Z,30.07
2018-11-06T18:54:08.998Z,29.67
2018-11-06T18:56:35.657Z,26.83
2018-11-06T18:59:02.463Z,29.60
2018-11-06T19:01:29.134Z,27.57
2018-11-06T19:03:55.793Z,29.83
2018-11-06T19:06:22.523Z,29.90
2018-11-06T19:08:49.389Z,32.77
2018-11-06T19:11:16.046Z,33.90
2018-11-06T19:13:43.598Z,29.40
2018-11-06T19:16:10.318Z,32.70
2018-11-06T19:18:37.768Z,30.20
2018-11-06T19:21:04.482Z,31.53
2018-11-06T19:23:31.175Z,38.77
2018-11-06T19:25:58.724Z,28.07
2018-11-06T19:28:25.406Z,31.23
2018-11-06T19:30:52.078Z,37.33
2018-11-06T19:33:18.871Z,32.83
2018-11-06T19:35:46.289Z,34.63
2018-11-06T19:38:12.992Z,32.93
2018-11-06T19:40:39.880Z,35.00
2018-11-06T19:43:07.271Z,43.13
2018-11-06T19:45:33.945Z,35.20
2018-11-06T19:48:00.734Z,38.23
2018-11-06T19:50:28.139Z,35.27
2018-11-06T19:52:54.850Z,43.67
2018-11-06T19:55:21.726Z,40.10
2018-11-06T19:57:48.415Z,44.20
2018-11-06T20:00:15.194Z,42.63
2018-11-06T20:02:41.895Z,44.20
2018-11-06T20:05:09.692Z,44.13
2018-11-06T20:07:37.373Z,41.33
2018-11-06T20:10:04.099Z,39.97
2018-11-06T20:12:30.761Z,40.43
2018-11-06T20:14:57.517Z,47.57
2018-11-06T20:17:25.127Z,48.47
2018-11-06T20:19:51.788Z,43.90
2018-11-06T20:22:18.593Z,42.97
2018-11-06T20:24:45.298Z,43.70
2018-11-06T20:27:11.958Z,50.83
2018-11-06T20:29:38.807Z,43.10
2018-11-06T20:32:06.247Z,48.73
2018-11-06T20:34:33.215Z,47.13
2018-11-06T20:37:00.023Z,46.23
2018-11-06T20:39:26.952Z,52.10
2018-11-06T20:41:53.980Z,45.17
2018-11-06T20:44:20.901Z,47.63
2018-11-06T20:46:48.402Z,43.60
2018-11-06T20:49:15.269Z,49.83
2018-11-06T20:51:42.084Z,50.80
2018-11-06T20:54:08.928Z,49.83
2018-11-06T20:56:35.629Z,50.43
2018-11-06T20:59:02.581Z,53.73
2018-11-06T21:01:29.305Z,48.07
2018-11-06T21:03:56.695Z,46.87
2018-11-06T21:06:23.355Z,44.93
2018-11-06T21:08:50.193Z,42.57
2018-11-06T21:11:16.926Z,41.67
2018-11-06T21:13:44.397Z,42.40
2018-11-06T21:16:11.420Z,40.03
2018-11-06T21:18:38.087Z,39.20
2018-11-06T21:21:05.552Z,37.63
2018-11-06T21:23:32.339Z,37.20
2018-11-06T21:25:59.192Z,38.20
2018-11-06T21:28:26.486Z,38.17
2018-11-06T21:30:53.333Z,36.87
2018-11-06T21:33:19.998Z,35.27
2018-11-06T21:35:47.416Z,37.47
2018-11-06T21:38:14.197Z,37.80
2018-11-06T21:40:41.880Z,37.73
2018-11-06T21:43:08.535Z,37.80
2018-11-06T21:45:36.429Z,32.30
2018-11-06T21:48:03.517Z,34.87
2018-11-06T21:50:30.197Z,39.30
2018-11-06T21:52:56.866Z,35.37
2018-11-06T21:55:23.567Z,35.63
2018-11-06T21:57:50.355Z,36.40
2018-11-06T22:00:17.124Z,34.10
2018-11-06T22:02:43.797Z,32.10
2018-11-06T22:05:10.540Z,33.40
2018-11-06T22:07:37.222Z,33.47
2018-11-06T22:10:04.784Z,34.90
2018-11-06T22:12:32.251Z,34.57
2018-11-06T22:14:59.728Z,34.27
2018-11-06T22:17:26.519Z,32.50
2018-11-06T22:19:53.194Z,34.10
2018-11-06T22:22:19.992Z,36.43
2018-11-06T22:24:46.891Z,35.57
2018-11-06T22:27:13.600Z,34.83
2018-11-06T22:29:40.273Z,37.40
2018-11-06T22:32:07.107Z,35.50
2018-11-06T22:34:33.768Z,32.97
2018-11-06T22:37:00.479Z,34.40
2018-11-06T22:39:27.151Z,34.17
2018-11-06T22:41:53.816Z,34.07
2018-11-06T22:44:20.626Z,30.90
2018-11-06T22:46:47.292Z,38.03
2018-11-06T22:49:13.959Z,32.80
2018-11-06T22:51:41.418Z,30.47
2018-11-06T22:54:08.821Z,34.17
2018-11-06T22:56:35.456Z,29.33
2018-11-06T22:59:02.270Z,29.30
2018-11-06T23:01:29.672Z,30.33
2018-11-06T23:03:56.370Z,28.20
2018-11-06T23:06:23.308Z,29.33
2018-11-06T23:08:50.009Z,28.90
2018-11-06T23:11:16.669Z,26.63
2018-11-06T23:13:44.336Z,27.17
2018-11-06T23:16:11.827Z,26.90
2018-11-06T23:18:38.461Z,28.63
2018-11-06T23:21:05.153Z,28.83
2018-11-06T23:23:32.359Z,30.60
2018-11-06T23:25:59.018Z,33.43
2018-11-06T23:28:25.786Z,31.63
2018-11-06T23:30:52.575Z,32.90
2018-11-06T23:33:19.295Z,32.90
2018-11-06T23:35:46.082Z,32.17
2018-11-06T23:38:12.890Z,34.23
2018-11-06T23:40:39.585Z,38.33
2018-11-06T23:43:07.200Z,33.47
2018-11-06T23:45:34.021Z,34.37
2018-11-06T23:48:00.682Z,35.57
2018-11-06T23:50:27.469Z,32.30
2018-11-06T23:52:54.140Z,33.57
2018-11-06T23:55:21.540Z,36.50
2018-11-06T23:57:48.246Z,32.17
